Time;durP1;ratioP1;P1;durP2;ratioP2;P2;SDS_P1;SDS_P2;PMS_P1;PMS_P2;Temp;Humidity;BMP_temperature;BMP_pressure;BME280_temperature;BME280_humidity;BME280_pressure;Samples;Min_cycle;Max_cycle;Signal;HPM_P1;HPM_P2
2020/12/27 00:02:11;;;;;;;1.30;1.25;;;6.10;99.90;;;;;;5093114;28;20609;-76
2020/12/27 00:04:40;;;;;;;0.30;0.30;;;6.20;99.90;;;;;;5093044;28;20672;-76
2020/12/27 00:07:08;;;;;;;1.40;1.30;;;6.10;99.90;;;;;;5074853;28;20166;-76
2020/12/27 00:09:34;;;;;;;1.40;0.65;;;6.00;99.90;;;;;;5093032;28;20204;-75
2020/12/27 00:12:00;;;;;;;0.43;0.43;;;6.00;99.90;;;;;;5092993;28;20219;-77
2020/12/27 00:14:26;;;;;;;1.08;1.08;;;6.10;99.90;;;;;;5092883;28;20728;-77
2020/12/27 00:16:51;;;;;;;0.70;0.70;;;6.10;99.90;;;;;;5092915;28;20170;-77
2020/12/27 00:19:17;;;;;;;0.88;0.85;;;6.10;99.90;;;;;;5093004;28;20177;-77
2020/12/27 00:21:42;;;;;;;0.45;0.45;;;6.10;99.90;;;;;;5092952;28;20166;-76
2020/12/27 00:24:08;;;;;;;0.25;0.25;;;6.10;99.90;;;;;;5092808;28;20665;-76
2020/12/27 00:26:33;;;;;;;1.60;1.50;;;6.10;99.90;;;;;;5092867;28;20177;-77
2020/12/27 00:28:59;;;;;;;1.63;1.52;;;6.10;99.90;;;;;;5092769;28;20316;-75
2020/12/27 00:31:25;;;;;;;0.55;0.55;;;6.20;99.90;;;;;;5092848;28;20240;-76
2020/12/27 00:33:50;;;;;;;1.10;0.70;;;6.10;99.90;;;;;;5074609;28;20201;-76
2020/12/27 00:36:20;;;;;;;1.65;1.52;;;6.10;99.90;;;;;;5092786;28;20154;-77
2020/12/27 00:38:49;;;;;;;0.20;0.20;;;6.10;99.90;;;;;;5074619;28;20176;-76
2020/12/27 00:41:22;;;;;;;1.73;0.95;;;5.90;99.90;;;;;;5092759;28;20201;-76
2020/12/27 00:43:48;;;;;;;1.38;1.35;;;6.00;99.90;;;;;;5074440;28;20379;-76
2020/12/27 00:46:14;;;;;;;0.70;0.70;;;6.00;99.90;;;;;;5092699;28;20196;-76
2020/12/27 00:48:40;;;;;;;0.40;0.40;;;5.90;99.90;;;;;;5092656;28;20196;-76
2020/12/27 00:51:06;;;;;;;0.45;0.45;;;6.00;99.90;;;;;;5092680;28;20177;-76
2020/12/27 00:53:31;;;;;;;0.75;0.75;;;6.00;99.90;;;;;;5074409;28;20260;-76
2020/12/27 00:55:57;;;;;;;0.25;0.25;;;6.10;99.90;;;;;;5092503;28;20204;-77
2020/12/27 00:58:22;;;;;;;0.55;0.55;;;6.10;99.90;;;;;;5092595;28;20176;-75
2020/12/27 01:00:48;;;;;;;3.55;1.13;;;6.10;99.90;;;;;;5092631;28;20205;-76
2020/12/27 01:03:13;;;;;;;0.30;0.30;;;6.10;99.90;;;;;;5092570;28;20154;-77
2020/12/27 01:05:40;;;;;;;0.30;0.30;;;6.10;99.90;;;;;;5093745;28;20243;-76
2020/12/27 01:08:06;;;;;;;0.25;0.25;;;6.10;99.90;;;;;;5096077;28;20203;-75
2020/12/27 01:10:31;;;;;;;1.23;0.70;;;6.00;99.90;;;;;;5096081;28;20626;-75
2020/12/27 01:12:57;;;;;;;0.57;0.57;;;6.00;99.90;;;;;;5096073;28;20635;-77
2020/12/27 01:15:22;;;;;;;0.93;0.93;;;6.00;99.90;;;;;;5096367;28;20636;-76
2020/12/27 01:17:48;;;;;;;1.00;0.45;;;6.00;99.90;;;;;;5095922;28;20535;-76
2020/12/27 01:20:14;;;;;;;0.55;0.45;;;6.00;99.90;;;;;;5095827;28;20169;-76
2020/12/27 01:22:39;;;;;;;0.47;0.47;;;6.00;99.90;;;;;;5095854;28;20175;-75
2020/12/27 01:25:05;;;;;;;1.42;1.00;;;6.10;99.90;;;;;;5095665;28;20192;-75
2020/12/27 01:27:30;;;;;;;0.30;0.30;;;6.10;99.90;;;;;;5095593;28;20681;-75
2020/12/27 01:29:56;;;;;;;0.43;0.43;;;6.10;99.90;;;;;;5094369;28;20166;-75
2020/12/27 01:32:21;;;;;;;0.85;0.73;;;6.10;99.90;;;;;;5095627;28;20150;-75
2020/12/27 01:34:47;;;;;;;2.28;0.80;;;6.10;99.90;;;;;;5095397;28;20538;-75
2020/12/27 01:37:13;;;;;;;0.30;0.30;;;6.10;99.90;;;;;;5095507;28;20165;-77
2020/12/27 01:39:38;;;;;;;0.52;0.52;;;6.20;99.90;;;;;;5077339;28;20191;-75
2020/12/27 01:42:04;;;;;;;1.17;1.00;;;6.20;99.90;;;;;;5077376;28;20166;-75
2020/12/27 01:44:29;;;;;;;0.30;0.30;;;6.10;99.90;;;;;;5095353;28;20259;-75
2020/12/27 01:46:55;;;;;;;0.38;0.38;;;6.10;99.90;;;;;;5095427;28;20204;-75
2020/12/27 01:49:21;;;;;;;0.20;0.20;;;6.10;99.90;;;;;;5095387;28;20613;-75
2020/12/27 01:51:46;;;;;;;0.20;0.20;;;6.10;99.90;;;;;;5095246;28;20172;-76
2020/12/27 01:54:12;;;;;;;0.63;0.63;;;6.20;99.90;;;;;;5095056;28;20683;-75
2020/12/27 01:56:40;;;;;;;1.00;0.93;;;6.20;99.90;;;;;;5095279;28;20602;-76
2020/12/27 01:59:13;;;;;;;0.52;0.52;;;6.30;99.90;;;;;;5095124;28;20151;-76
2020/12/27 02:01:40;;;;;;;0.68;0.68;;;6.30;99.90;;;;;;5095154;28;20170;-75
2020/12/27 02:04:06;;;;;;;0.13;0.13;;;6.20;99.90;;;;;;5094980;28;20215;-76
2020/12/27 02:06:32;;;;;;;0.68;0.68;;;6.20;99.90;;;;;;5095268;28;20154;-74
2020/12/27 02:08:57;;;;;;;0.17;0.17;;;6.10;99.90;;;;;;5094931;28;20621;-75
2020/12/27 02:11:24;;;;;;;0.35;0.35;;;6.10;99.90;;;;;;5094841;28;20165;-77
2020/12/27 02:13:56;;;;;;;0.40;0.40;;;6.20;99.90;;;;;;5076570;28;20201;-76
2020/12/27 02:16:26;;;;;;;0.20;0.20;;;6.20;99.90;;;;;;5094259;28;20162;-75
2020/12/27 02:18:54;;;;;;;0.70;0.63;;;6.20;99.90;;;;;;5076229;28;20158;-75
2020/12/27 02:21:19;;;;;;;0.50;0.50;;;6.20;99.90;;;;;;5076523;28;20664;-75
2020/12/27 02:23:48;;;;;;;0.50;0.50;;;6.30;99.90;;;;;;5094551;28;20158;-75
2020/12/27 02:26:13;;;;;;;0.30;0.30;;;6.30;99.90;;;;;;5094644;28;20196;-76
2020/12/27 02:28:40;;;;;;;1.08;0.65;;;6.40;99.90;;;;;;5094337;28;20674;-75
2020/12/27 02:31:05;;;;;;;0.30;0.30;;;6.30;99.90;;;;;;5076315;28;20179;-76
2020/12/27 02:33:31;;;;;;;0.25;0.25;;;6.40;99.90;;;;;;5094312;28;20158;-75
2020/12/27 02:35:57;;;;;;;0.20;0.20;;;6.40;99.90;;;;;;5094411;28;20232;-76
2020/12/27 02:38:23;;;;;;;0.93;0.93;;;6.30;99.90;;;;;;5094359;28;20158;-76
2020/12/27 02:40:49;;;;;;;0.47;0.47;;;6.20;99.90;;;;;;5094184;28;20197;-76
2020/12/27 02:43:16;;;;;;;4.43;1.13;;;6.20;99.90;;;;;;5076061;28;20615;-74
2020/12/27 02:45:42;;;;;;;0.10;0.10;;;6.30;99.90;;;;;;5094260;28;20265;-76
2020/12/27 02:48:08;;;;;;;1.98;0.40;;;6.40;99.90;;;;;;5075940;28;20698;-76
2020/12/27 02:50:34;;;;;;;0.50;0.50;;;6.30;99.90;;;;;;5094109;28;20166;-75
2020/12/27 02:53:00;;;;;;;0.40;0.40;;;6.40;99.90;;;;;;5094014;28;20154;-75
2020/12/27 02:55:26;;;;;;;0.20;0.20;;;6.30;99.90;;;;;;5093878;28;20239;-76
2020/12/27 02:57:51;;;;;;;0.43;0.43;;;6.40;99.90;;;;;;5094018;28;20166;-76
2020/12/27 03:00:17;;;;;;;0.28;0.28;;;6.40;99.90;;;;;;5093952;28;20528;-77
2020/12/27 03:02:42;;;;;;;0.32;0.32;;;6.30;99.90;;;;;;5093981;28;20154;-75
2020/12/27 03:05:08;;;;;;;0.60;0.60;;;6.30;99.90;;;;;;5093708;28;20691;-75
2020/12/27 03:07:33;;;;;;;0.22;0.22;;;6.20;99.90;;;;;;5093852;28;20614;-77
2020/12/27 03:09:59;;;;;;;0.20;0.20;;;6.20;99.90;;;;;;5093762;28;20169;-76
2020/12/27 03:12:25;;;;;;;0.10;0.10;;;6.30;99.90;;;;;;5075620;28;20170;-75
2020/12/27 03:14:50;;;;;;;0.30;0.30;;;6.40;99.90;;;;;;5093545;28;20251;-76
2020/12/27 03:17:16;;;;;;;0.20;0.20;;;6.40;99.90;;;;;;5093585;28;20162;-77
2020/12/27 03:19:41;;;;;;;0.28;0.28;;;6.40;99.90;;;;;;5093588;28;20154;-75
2020/12/27 03:22:07;;;;;;;0.10;0.10;;;6.40;99.90;;;;;;5093635;28;20158;-75
2020/12/27 03:24:32;;;;;;;0.17;0.17;;;6.40;99.90;;;;;;5093432;28;20182;-75
2020/12/27 03:26:58;;;;;;;0.25;0.25;;;6.40;99.90;;;;;;5093416;28;20293;-75
2020/12/27 03:29:24;;;;;;;0.20;0.20;;;6.40;99.90;;;;;;5093247;28;20651;-75
2020/12/27 03:31:49;;;;;;;0.10;0.10;;;6.50;99.90;;;;;;5093369;28;20655;-76
2020/12/27 03:34:15;;;;;;;0.28;0.28;;;6.50;99.90;;;;;;5093297;28;20239;-75
2020/12/27 03:36:41;;;;;;;1.55;0.75;;;6.50;99.90;;;;;;5093396;28;20174;-75
2020/12/27 03:39:07;;;;;;;0.20;0.20;;;6.50;99.90;;;;;;5093380;28;20154;-76
2020/12/27 03:41:32;;;;;;;0.30;0.30;;;6.50;99.90;;;;;;5093276;28;20499;-75
2020/12/27 03:43:58;;;;;;;0.10;0.10;;;6.50;99.90;;;;;;5075193;28;20178;-76
2020/12/27 03:46:24;;;;;;;0.10;0.10;;;6.50;99.90;;;;;;5093303;28;20158;-76
2020/12/27 03:48:49;;;;;;;0.10;0.10;;;6.60;99.90;;;;;;5093285;28;20723;-76
2020/12/27 03:51:15;;;;;;;0.15;0.15;;;6.70;99.90;;;;;;5093261;28;20169;-76
2020/12/27 03:53:40;;;;;;;0.10;0.10;;;6.60;99.90;;;;;;5093059;28;20169;-76
2020/12/27 03:56:06;;;;;;;0.30;0.30;;;6.70;99.90;;;;;;5093424;28;20181;-76
2020/12/27 03:58:32;;;;;;;0.10;0.10;;;6.60;99.90;;;;;;5093159;28;20169;-76
2020/12/27 04:00:57;;;;;;;0.32;0.32;;;6.50;99.90;;;;;;5093108;28;20691;-77
2020/12/27 04:03:23;;;;;;;0.10;0.10;;;6.50;99.90;;;;;;5074831;28;20169;-77
2020/12/27 04:05:48;;;;;;;0.10;0.10;;;6.60;99.90;;;;;;5093050;28;21012;-76
2020/12/27 04:08:14;;;;;;;0.20;0.20;;;6.50;99.90;;;;;;5093014;28;20197;-76
2020/12/27 04:10:40;;;;;;;0.35;0.35;;;6.60;99.90;;;;;;5093030;28;20197;-76
2020/12/27 04:13:05;;;;;;;0.10;0.10;;;6.70;99.90;;;;;;5092936;28;20166;-76
2020/12/27 04:15:31;;;;;;;0.10;0.10;;;6.60;99.90;;;;;;5074824;28;20218;-76
2020/12/27 04:17:56;;;;;;;0.10;0.10;;;6.60;99.90;;;;;;5074904;28;20249;-76
2020/12/27 04:20:22;;;;;;;0.20;0.20;;;6.60;99.90;;;;;;5092796;28;20664;-74
2020/12/27 04:22:51;;;;;;;0.15;0.15;;;6.50;99.90;;;;;;5074852;28;20215;-75
2020/12/27 04:25:17;;;;;;;0.22;0.22;;;6.60;99.90;;;;;;5092785;28;20189;-77
2020/12/27 04:27:43;;;;;;;0.52;0.52;;;6.60;99.90;;;;;;5092774;28;20210;-75
2020/12/27 04:30:09;;;;;;;0.10;0.10;;;6.50;99.90;;;;;;5092800;28;20179;-75
2020/12/27 04:32:34;;;;;;;0.20;0.20;;;6.50;99.90;;;;;;5092829;28;20157;-76
2020/12/27 04:35:01;;;;;;;0.20;0.20;;;6.60;99.90;;;;;;5092669;28;20209;-75
2020/12/27 04:37:27;;;;;;;0.10;0.10;;;6.50;99.90;;;;;;5092780;28;20154;-76
2020/12/27 04:39:53;;;;;;;0.10;0.10;;;6.50;99.90;;;;;;5074908;28;20170;-75
2020/12/27 04:42:21;;;;;;;0.13;0.13;;;6.60;99.90;;;;;;5096660;28;20180;-75
2020/12/27 04:44:47;;;;;;;0.30;0.30;;;6.60;99.90;;;;;;5096464;28;20295;-74
2020/12/27 04:47:13;;;;;;;0.10;0.10;;;6.50;99.90;;;;;;5096486;28;20158;-76
2020/12/27 04:49:38;;;;;;;0.10;0.10;;;6.60;99.90;;;;;;5096388;28;20682;-76
2020/12/27 04:52:06;;;;;;;0.20;0.20;;;6.50;99.90;;;;;;5096325;28;20165;-77
2020/12/27 04:54:33;;;;;;;0.10;0.10;;;6.50;99.90;;;;;;5096223;28;20293;-75
2020/12/27 04:56:59;;;;;;;0.10;0.10;;;6.60;99.90;;;;;;5077903;28;20199;-76
2020/12/27 04:59:25;;;;;;;0.60;0.60;;;6.60;99.90;;;;;;5096338;28;20173;-75
2020/12/27 05:01:51;;;;;;;0.10;0.10;;;6.60;99.90;;;;;;5096081;28;20199;-75
2020/12/27 05:04:25;;;;;;;1.08;1.08;;;6.50;99.90;;;;;;5096160;28;20217;-77
2020/12/27 05:06:56;;;;;;;0.10;0.10;;;6.50;99.90;;;;;;5096039;28;20670;-76
2020/12/27 05:09:28;;;;;;;0.10;0.10;;;6.50;99.90;;;;;;5096007;28;20162;-75
2020/12/27 05:11:54;;;;;;;0.20;0.20;;;6.50;99.90;;;;;;5096575;28;20186;-75
2020/12/27 05:14:24;;;;;;;0.20;0.20;;;6.40;99.90;;;;;;5095847;28;20675;-75
2020/12/27 05:16:55;;;;;;;0.20;0.20;;;6.40;99.90;;;;;;5095908;28;20172;-74
2020/12/27 05:19:21;;;;;;;0.10;0.10;;;6.40;99.90;;;;;;5095742;28;20172;-75
2020/12/27 05:21:47;;;;;;;0.10;0.10;;;6.40;99.90;;;;;;5095984;28;20205;-76
2020/12/27 05:24:14;;;;;;;0.17;0.17;;;6.30;99.90;;;;;;5077444;28;20216;-75
2020/12/27 05:26:43;;;;;;;0.10;0.10;;;6.40;99.90;;;;;;5095608;28;20162;-75
2020/12/27 05:29:09;;;;;;;0.35;0.35;;;6.40;99.90;;;;;;5077588;28;20190;-75
2020/12/27 05:31:37;;;;;;;0.10;0.10;;;6.40;99.90;;;;;;5077569;28;20158;-75
2020/12/27 05:34:08;;;;;;;0.10;0.10;;;6.40;99.90;;;;;;5077332;28;20201;-76
2020/12/27 05:36:33;;;;;;;0.20;0.20;;;6.40;99.90;;;;;;5095444;28;20291;-75
2020/12/27 05:38:59;;;;;;;0.10;0.10;;;6.30;99.90;;;;;;5095493;28;20597;-74
2020/12/27 05:41:29;;;;;;;0.10;0.10;;;6.30;99.90;;;;;;5095438;28;20694;-75
2020/12/27 05:44:02;;;;;;;0.10;0.10;;;6.40;99.90;;;;;;5095345;28;20629;-76
2020/12/27 05:46:30;;;;;;;0.10;0.10;;;6.40;99.90;;;;;;5095374;28;20157;-74
2020/12/27 05:48:56;;;;;;;0.10;0.10;;;6.50;99.90;;;;;;5095289;28;20671;-77
2020/12/27 05:51:23;;;;;;;0.10;0.10;;;6.40;99.90;;;;;;5077027;28;20162;-76
2020/12/27 05:53:53;;;;;;;0.20;0.20;;;6.40;99.90;;;;;;5095187;28;20173;-75
2020/12/27 05:56:20;;;;;;;0.10;0.10;;;6.40;99.90;;;;;;5095160;28;20177;-75
2020/12/27 05:58:47;;;;;;;0.10;0.10;;;6.40;99.90;;;;;;5095018;28;20166;-76
2020/12/27 06:01:22;;;;;;;0.13;0.13;;;6.40;99.90;;;;;;5095093;28;20208;-77
2020/12/27 06:04:01;;;;;;;0.10;0.10;;;6.40;99.90;;;;;;5094930;28;20517;-74
2020/12/27 06:07:03;;;;;;;0.10;0.10;;;6.40;99.90;;;;;;5094788;28;20197;-77
2020/12/27 06:10:01;;;;;;;0.10;0.10;;;6.40;99.90;;;;;;5095116;28;20161;-74
2020/12/27 06:13:13;;;;;;;0.10;0.10;;;6.50;99.90;;;;;;5094887;28;20166;-74
2020/12/27 06:15:56;;;;;;;0.10;0.10;;;6.50;99.90;;;;;;5067708;28;20571;-76
2020/12/27 06:18:27;;;;;;;0.10;0.10;;;6.50;99.90;;;;;;5094623;28;20275;-74
2020/12/27 06:21:10;;;;;;;0.10;0.10;;;6.50;99.90;;;;;;5094560;28;20170;-74
2020/12/27 06:23:38;;;;;;;0.20;0.20;;;6.50;99.90;;;;;;5094548;28;20692;-76
2020/12/27 06:26:05;;;;;;;0.20;0.20;;;6.50;99.90;;;;;;5094563;28;20309;-75
2020/12/27 06:28:32;;;;;;;0.10;0.10;;;6.50;99.90;;;;;;5076232;28;20221;-74
2020/12/27 06:31:03;;;;;;;0.10;0.10;;;6.50;99.90;;;;;;5094387;28;20625;-74
2020/12/27 06:33:35;;;;;;;0.10;0.10;;;6.50;99.90;;;;;;5094286;28;20222;-74
2020/12/27 06:36:02;;;;;;;0.10;0.10;;;6.50;99.90;;;;;;5094164;28;20205;-75
2020/12/27 06:38:32;;;;;;;0.10;0.10;;;6.50;99.90;;;;;;5094198;28;20528;-75
2020/12/27 06:41:09;;;;;;;0.10;0.10;;;6.60;99.90;;;;;;5094174;28;20629;-75
2020/12/27 06:43:43;;;;;;;0.10;0.10;;;6.60;99.90;;;;;;5075993;28;20169;-75
2020/12/27 06:46:28;;;;;;;0.10;0.10;;;6.60;99.90;;;;;;5094244;28;20158;-76
2020/12/27 06:49:11;;;;;;;0.10;0.10;;;6.60;99.90;;;;;;5094102;28;20605;-75
2020/12/27 06:51:41;;;;;;;0.20;0.20;;;6.60;99.90;;;;;;5094182;28;20166;-77
2020/12/27 06:54:07;;;;;;;0.30;0.30;;;6.60;99.90;;;;;;5093967;28;20206;-75
2020/12/27 06:56:40;;;;;;;0.10;0.10;;;6.70;99.90;;;;;;5094027;28;20239;-75
2020/12/27 06:59:06;;;;;;;0.10;0.10;;;6.60;99.90;;;;;;5093947;28;20688;-75
2020/12/27 07:01:32;;;;;;;0.10;0.10;;;6.60;99.90;;;;;;5093815;28;20161;-75
2020/12/27 07:04:18;;;;;;;0.10;0.10;;;6.60;99.90;;;;;;5093398;28;20162;-75
2020/12/27 07:06:48;;;;;;;0.10;0.10;;;6.60;99.90;;;;;;5093620;28;20206;-76
2020/12/27 07:09:27;;;;;;;0.30;0.30;;;6.60;99.90;;;;;;5093751;28;20150;-78
2020/12/27 07:12:06;;;;;;;0.30;0.30;;;6.60;99.90;;;;;;5075766;28;20169;-88
2020/12/27 07:14:53;;;;;;;0.10;0.10;;;6.60;99.90;;;;;;5095195;28;20220;-78
2020/12/27 07:17:19;;;;;;;0.10;0.10;;;6.70;99.90;;;;;;5093290;28;20244;-78
2020/12/27 07:19:44;;;;;;;0.10;0.10;;;6.70;99.90;;;;;;5093621;28;20271;-78
2020/12/27 07:22:11;;;;;;;0.10;0.10;;;6.70;99.90;;;;;;5093739;28;20203;-78
2020/12/27 07:24:39;;;;;;;0.30;0.28;;;6.70;99.90;;;;;;5093613;28;20186;-75
2020/12/27 07:27:06;;;;;;;0.45;0.45;;;6.70;99.90;;;;;;5093570;28;20236;-75
2020/12/27 07:29:33;;;;;;;0.10;0.10;;;6.80;99.90;;;;;;5075327;28;20177;-75
2020/12/27 07:31:59;;;;;;;0.10;0.10;;;6.80;99.90;;;;;;5093502;28;20162;-75
2020/12/27 07:34:27;;;;;;;0.20;0.20;;;6.80;99.90;;;;;;5093037;28;20280;-75
2020/12/27 07:37:00;;;;;;;0.10;0.10;;;6.80;99.90;;;;;;5093152;28;20258;-75
2020/12/27 07:39:55;;;;;;;0.10;0.10;;;6.80;99.90;;;;;;5093018;28;20154;-75
2020/12/27 07:42:28;;;;;;;0.10;0.10;;;6.80;99.90;;;;;;5093115;28;20240;-75
2020/12/27 07:44:54;;;;;;;0.10;0.10;;;6.90;99.90;;;;;;5093088;28;20182;-75
2020/12/27 07:47:20;;;;;;;0.10;0.10;;;7.00;99.90;;;;;;5075100;28;20158;-76
2020/12/27 07:50:08;;;;;;;0.10;0.10;;;6.90;99.90;;;;;;5075025;28;20176;-74
2020/12/27 07:52:56;;;;;;;0.10;0.10;;;6.90;99.90;;;;;;5093236;28;20157;-75
2020/12/27 07:55:27;;;;;;;0.75;0.30;;;7.00;99.90;;;;;;5075861;28;20677;-75
2020/12/27 07:57:54;;;;;;;0.10;0.10;;;7.00;99.90;;;;;;5092954;28;20161;-74
2020/12/27 08:00:42;;;;;;;0.10;0.10;;;6.90;99.90;;;;;;5093069;28;20227;-76
2020/12/27 08:03:09;;;;;;;0.10;0.10;;;7.00;99.90;;;;;;5092787;28;20609;-77
2020/12/27 08:05:35;;;;;;;0.10;0.10;;;7.00;99.90;;;;;;5074775;28;20566;-76
2020/12/27 08:08:05;;;;;;;0.10;0.10;;;7.00;99.90;;;;;;5074838;28;20169;-76
2020/12/27 08:10:31;;;;;;;0.10;0.10;;;7.00;99.90;;;;;;5092897;28;20154;-75
2020/12/27 08:12:59;;;;;;;0.10;0.10;;;7.00;99.90;;;;;;5092861;28;20219;-75
2020/12/27 08:15:27;;;;;;;0.50;0.50;;;7.00;99.90;;;;;;5093519;28;20197;-75
2020/12/27 08:17:58;;;;;;;0.17;0.17;;;6.90;99.90;;;;;;5096931;28;20174;-75
2020/12/27 08:20:24;;;;;;;0.20;0.20;;;7.00;99.90;;;;;;5096766;28;20211;-75
2020/12/27 08:22:57;;;;;;;0.10;0.10;;;7.10;99.90;;;;;;5096928;28;20162;-75
2020/12/27 08:25:23;;;;;;;0.10;0.10;;;7.10;99.90;;;;;;5097336;28;20186;-75
2020/12/27 08:27:54;;;;;;;0.10;0.10;;;7.00;99.90;;;;;;5096793;28;20618;-76
2020/12/27 08:30:19;;;;;;;1.38;1.27;;;7.00;99.90;;;;;;5096670;28;20178;-77
2020/12/27 08:32:45;;;;;;;0.10;0.10;;;7.00;99.90;;;;;;5096803;28;20289;-74
2020/12/27 08:35:23;;;;;;;0.10;0.10;;;7.10;99.90;;;;;;5096725;28;20288;-76
2020/12/27 08:37:54;;;;;;;0.20;0.20;;;7.10;99.90;;;;;;5095332;28;20602;-75
2020/12/27 08:40:23;;;;;;;0.10;0.10;;;7.10;99.90;;;;;;5096531;28;20163;-76
2020/12/27 08:42:49;;;;;;;0.20;0.20;;;7.10;99.90;;;;;;5096260;28;20158;-76
2020/12/27 08:45:20;;;;;;;0.32;0.32;;;7.00;99.90;;;;;;5096389;28;20193;-76
2020/12/27 08:48:09;;;;;;;0.10;0.10;;;7.10;99.90;;;;;;5096224;28;20696;-75
2020/12/27 08:50:40;;;;;;;0.20;0.20;;;7.00;99.90;;;;;;5096283;28;20172;-75
2020/12/27 08:53:08;;;;;;;0.35;0.35;;;7.00;99.90;;;;;;5092800;28;20173;-76
2020/12/27 08:55:34;;;;;;;1.45;0.40;;;7.00;99.90;;;;;;5083705;28;20194;-76
2020/12/27 08:58:00;;;;;;;0.10;0.10;;;7.00;99.90;;;;;;5057748;28;20174;-77
2020/12/27 09:00:35;;;;;;;0.10;0.10;;;6.90;99.90;;;;;;5086350;28;20182;-77
2020/12/27 09:03:05;;;;;;;0.10;0.10;;;7.00;99.90;;;;;;5093196;28;20876;-75
2020/12/27 09:05:33;;;;;;;0.10;0.10;;;7.00;99.90;;;;;;5093583;28;20740;-77
2020/12/27 09:07:59;;;;;;;0.10;0.10;;;7.00;99.90;;;;;;5092909;28;20259;-77
2020/12/27 09:10:25;;;;;;;0.10;0.10;;;7.00;99.90;;;;;;5095888;28;20662;-77
2020/12/27 09:13:11;;;;;;;0.10;0.10;;;7.00;99.90;;;;;;5077625;28;20169;-74
2020/12/27 09:15:48;;;;;;;0.10;0.10;;;7.00;99.90;;;;;;5095526;28;20198;-74
2020/12/27 09:18:27;;;;;;;0.20;0.20;;;7.00;99.90;;;;;;5095279;28;20165;-74
2020/12/27 09:21:01;;;;;;;0.10;0.10;;;7.00;99.90;;;;;;5095541;28;20169;-74
2020/12/27 09:23:26;;;;;;;0.20;0.20;;;7.00;99.90;;;;;;5095637;28;20172;-74
2020/12/27 09:26:13;;;;;;;0.13;0.13;;;7.10;99.90;;;;;;5094919;28;20178;-76
2020/12/27 09:28:39;;;;;;;0.10;0.10;;;7.10;99.90;;;;;;5095503;28;20217;-76
2020/12/27 09:31:09;;;;;;;0.10;0.10;;;7.00;99.90;;;;;;5077308;28;20184;-74
2020/12/27 09:33:39;;;;;;;0.10;0.10;;;7.00;99.90;;;;;;5095464;28;20643;-75
2020/12/27 09:36:06;;;;;;;0.30;0.30;;;7.10;99.90;;;;;;5095327;28;20198;-75
2020/12/27 09:38:43;;;;;;;0.10;0.10;;;7.10;99.90;;;;;;5095225;28;20633;-76
2020/12/27 09:41:16;;;;;;;0.25;0.25;;;7.10;99.90;;;;;;5095268;28;20722;-74
2020/12/27 09:43:52;;;;;;;0.65;0.65;;;7.10;99.90;;;;;;5094943;28;20173;-74
2020/12/27 09:46:46;;;;;;;0.10;0.10;;;7.10;99.90;;;;;;5095128;28;20172;-76
2020/12/27 09:49:34;;;;;;;0.10;0.10;;;7.00;99.90;;;;;;5095187;28;20154;-74
2020/12/27 09:52:04;;;;;;;0.30;0.30;;;7.00;99.90;;;;;;5095142;28;20169;-75
2020/12/27 09:54:34;;;;;;;0.10;0.10;;;7.00;99.90;;;;;;5094897;28;20185;-74
2020/12/27 09:57:20;;;;;;;0.10;0.10;;;7.10;99.90;;;;;;5095003;28;20178;-76
2020/12/27 09:59:49;;;;;;;0.10;0.10;;;7.10;99.90;;;;;;5094774;28;20166;-75
2020/12/27 10:02:15;;;;;;;0.22;0.22;;;7.00;99.90;;;;;;5094407;28;20652;-76
2020/12/27 10:04:41;;;;;;;0.10;0.10;;;7.10;99.90;;;;;;5076311;28;20193;-74
2020/12/27 10:07:07;;;;;;;0.15;0.15;;;7.10;99.90;;;;;;5094695;28;20162;-74
2020/12/27 10:09:33;;;;;;;0.10;0.10;;;7.10;99.90;;;;;;5094884;28;20150;-78
2020/12/27 10:11:59;;;;;;;0.10;0.10;;;7.10;99.90;;;;;;5094748;28;20166;-77
2020/12/27 10:14:25;;;;;;;0.35;0.32;;;7.10;99.90;;;;;;5094448;28;20198;-74
2020/12/27 10:16:50;;;;;;;0.20;0.20;;;7.00;99.90;;;;;;5094632;28;20162;-74
2020/12/27 10:19:16;;;;;;;0.10;0.10;;;7.00;99.90;;;;;;5094602;28;20162;-73
2020/12/27 10:21:46;;;;;;;0.10;0.10;;;7.00;99.90;;;;;;5094333;28;20523;-75
2020/12/27 10:24:12;;;;;;;0.10;0.10;;;7.00;99.90;;;;;;5094519;28;20186;-74
2020/12/27 10:26:39;;;;;;;0.10;0.10;;;7.10;99.90;;;;;;5094619;28;20234;-73
2020/12/27 10:29:04;;;;;;;0.15;0.15;;;7.00;99.90;;;;;;5094218;28;20245;-74
2020/12/27 10:31:30;;;;;;;0.10;0.10;;;7.00;99.90;;;;;;5073097;28;20264;-74
2020/12/27 10:33:57;;;;;;;0.10;0.10;;;7.10;99.90;;;;;;5093525;28;20610;-75
2020/12/27 10:36:22;;;;;;;0.10;0.10;;;7.10;99.90;;;;;;5093846;28;20158;-74
2020/12/27 10:38:48;;;;;;;0.10;0.10;;;7.00;99.90;;;;;;5093420;28;20575;-74
2020/12/27 10:41:14;;;;;;;0.10;0.10;;;7.00;99.90;;;;;;5094324;28;20162;-74
2020/12/27 10:43:39;;;;;;;0.13;0.13;;;7.00;99.90;;;;;;5093916;28;20165;-74
2020/12/27 10:46:05;;;;;;;0.10;0.10;;;7.00;99.90;;;;;;5094014;28;20219;-75
2020/12/27 10:48:32;;;;;;;0.17;0.17;;;7.00;99.90;;;;;;5093994;28;20527;-75
2020/12/27 10:50:59;;;;;;;0.10;0.10;;;7.00;99.90;;;;;;5094108;28;20162;-75
2020/12/27 10:53:25;;;;;;;0.20;0.20;;;6.90;99.90;;;;;;5093650;28;20177;-75
2020/12/27 10:55:50;;;;;;;0.20;0.20;;;7.00;99.90;;;;;;5075482;28;20211;-74
2020/12/27 10:58:16;;;;;;;0.17;0.17;;;6.90;99.90;;;;;;5093938;28;20177;-75
2020/12/27 11:00:45;;;;;;;0.10;0.10;;;6.90;99.90;;;;;;5093508;28;20182;-75
2020/12/27 11:03:11;;;;;;;0.10;0.10;;;6.90;99.90;;;;;;5093330;28;20193;-75
2020/12/27 11:05:39;;;;;;;0.10;0.10;;;6.90;99.90;;;;;;5092225;28;20178;-75
2020/12/27 11:08:07;;;;;;;0.10;0.10;;;6.90;99.90;;;;;;5093428;28;20250;-75
2020/12/27 11:10:34;;;;;;;0.10;0.10;;;6.90;99.90;;;;;;5092737;28;20253;-75
2020/12/27 11:13:00;;;;;;;0.20;0.20;;;6.90;99.90;;;;;;5093415;28;20243;-74
2020/12/27 11:15:26;;;;;;;0.10;0.10;;;6.90;99.90;;;;;;5093368;28;20197;-74
2020/12/27 11:17:52;;;;;;;0.10;0.10;;;6.90;99.90;;;;;;5093158;28;20631;-76
2020/12/27 11:20:17;;;;;;;0.10;0.10;;;6.90;99.90;;;;;;5093630;28;20198;-74
2020/12/27 11:22:43;;;;;;;0.15;0.15;;;6.90;99.90;;;;;;5093374;28;20154;-75
2020/12/27 11:25:10;;;;;;;0.17;0.17;;;6.90;99.90;;;;;;5075187;28;20198;-75
2020/12/27 11:27:36;;;;;;;0.10;0.10;;;6.90;99.90;;;;;;5093221;28;20209;-74
2020/12/27 11:30:04;;;;;;;0.10;0.10;;;6.90;99.90;;;;;;5092944;28;20268;-75
2020/12/27 11:32:29;;;;;;;0.10;0.10;;;6.90;99.90;;;;;;5093114;28;20660;-75
2020/12/27 11:34:55;;;;;;;0.30;0.30;;;6.90;99.90;;;;;;5091172;28;20189;-74
2020/12/27 11:37:20;;;;;;;0.10;0.10;;;7.00;99.90;;;;;;5078506;28;20625;-75
2020/12/27 11:39:46;;;;;;;0.10;0.10;;;7.00;99.90;;;;;;5093156;28;20162;-75
2020/12/27 11:42:11;;;;;;;0.10;0.10;;;7.00;99.90;;;;;;5092745;28;20173;-74
2020/12/27 11:44:37;;;;;;;0.10;0.10;;;6.90;99.90;;;;;;5074387;28;20185;-74
2020/12/27 11:47:07;;;;;;;0.20;0.20;;;7.00;99.90;;;;;;5092967;28;20170;-75
2020/12/27 11:49:33;;;;;;;0.15;0.15;;;7.00;99.90;;;;;;5092966;28;20165;-74
2020/12/27 11:51:58;;;;;;;0.10;0.10;;;7.00;99.90;;;;;;5093115;28;20166;-74
2020/12/27 11:54:25;;;;;;;0.10;0.10;;;7.00;99.90;;;;;;5092728;28;20204;-75
2020/12/27 11:56:57;;;;;;;0.10;0.10;;;7.00;99.90;;;;;;5092982;28;20267;-81
2020/12/27 11:59:23;;;;;;;0.10;0.10;;;7.00;99.90;;;;;;5092235;28;20166;-75
2020/12/27 12:01:49;;;;;;;0.10;0.10;;;7.10;99.90;;;;;;5092858;28;20498;-74
2020/12/27 12:04:15;;;;;;;0.10;0.10;;;7.10;99.90;;;;;;5092498;28;20203;-76
2020/12/27 12:06:40;;;;;;;3.42;1.30;;;7.00;99.90;;;;;;5093009;28;20252;-76
2020/12/27 12:09:06;;;;;;;0.10;0.10;;;7.10;99.90;;;;;;5074691;28;20526;-74
2020/12/27 12:11:39;;;;;;;0.10;0.10;;;7.10;99.90;;;;;;5092996;28;20219;-75
2020/12/27 12:14:05;;;;;;;0.10;0.10;;;7.00;99.90;;;;;;5074498;28;20193;-75
2020/12/27 12:16:31;;;;;;;0.10;0.10;;;7.00;99.90;;;;;;5093067;28;20162;-76
2020/12/27 12:18:57;;;;;;;0.10;0.10;;;7.00;99.90;;;;;;5092852;28;20511;-74
2020/12/27 12:21:23;;;;;;;0.10;0.10;;;7.10;99.90;;;;;;5092563;28;20169;-76
2020/12/27 12:23:49;;;;;;;0.10;0.10;;;7.10;99.90;;;;;;5092355;28;20170;-76
2020/12/27 12:26:22;;;;;;;0.10;0.10;;;7.00;99.90;;;;;;5092662;28;20508;-75
2020/12/27 12:28:48;;;;;;;0.20;0.20;;;7.10;99.90;;;;;;5092059;28;20226;-76
2020/12/27 12:31:14;;;;;;;0.10;0.10;;;7.10;99.90;;;;;;5092473;28;20162;-76
2020/12/27 12:33:40;;;;;;;0.10;0.10;;;7.00;99.90;;;;;;5091699;28;20610;-76
2020/12/27 12:36:06;;;;;;;0.10;0.10;;;7.10;99.90;;;;;;5092520;28;20206;-75
2020/12/27 12:38:32;;;;;;;0.10;0.10;;;7.10;99.90;;;;;;5092283;28;20216;-76
2020/12/27 12:40:58;;;;;;;0.10;0.10;;;7.10;99.90;;;;;;5092655;28;20166;-75
2020/12/27 12:43:24;;;;;;;0.10;0.10;;;7.10;99.90;;;;;;5091720;28;20163;-76
2020/12/27 12:45:50;;;;;;;0.10;0.10;;;7.10;99.90;;;;;;5092457;28;20286;-76
2020/12/27 12:48:15;;;;;;;0.10;0.10;;;7.10;99.90;;;;;;5092190;28;20166;-75
2020/12/27 12:50:41;;;;;;;0.10;0.10;;;7.10;99.90;;;;;;5092456;28;20170;-76
2020/12/27 12:53:07;;;;;;;0.17;0.17;;;7.00;99.90;;;;;;5092202;28;20162;-75
2020/12/27 12:55:32;;;;;;;0.30;0.30;;;7.00;99.90;;;;;;5092312;28;20205;-75
2020/12/27 12:57:58;;;;;;;0.10;0.10;;;7.00;99.90;;;;;;5092236;28;20170;-76
2020/12/27 13:00:25;;;;;;;0.10;0.10;;;7.00;99.90;;;;;;5065606;28;20206;-75
2020/12/27 13:02:50;;;;;;;0.10;0.10;;;7.00;99.90;;;;;;5073594;28;20633;-75
2020/12/27 13:05:16;;;;;;;0.10;0.10;;;6.90;99.90;;;;;;5064731;28;20201;-76